sensor_id;sensor_type;location;lat;lon;timestamp;pressure;altitude;pressure_sealevel;temperature;humidity
53868;BME280;41577;47.470;19.080;2023-06-14T00:00:09;99927.66;;;14.08;100.00
53868;BME280;41577;47.470;19.080;2023-06-14T00:00:21;99930.34;;;14.08;100.00
53868;BME280;41577;47.470;19.080;2023-06-14T00:00:33;99931.41;;;14.07;100.00
53868;BME280;41577;47.470;19.080;2023-06-14T00:00:44;99922.97;;;14.04;100.00
53868;BME280;41577;47.470;19.080;2023-06-14T00:00:56;99932.44;;;14.06;100.00
53868;BME280;41577;47.470;19.080;2023-06-14T00:01:08;99926.47;;;14.04;100.00
53868;BME280;41577;47.470;19.080;2023-06-14T00:01:19;99929.75;;;14.06;100.00
53868;BME280;41577;47.470;19.080;2023-06-14T00:01:31;99929.97;;;14.05;100.00
53868;BME280;41577;47.470;19.080;2023-06-14T00:01:43;99923.78;;;14.04;100.00
53868;BME280;41577;47.470;19.080;2023-06-14T00:01:55;99922.97;;;14.04;100.00
53868;BME280;41577;47.470;19.080;2023-06-14T00:02:06;99922.97;;;14.04;100.00
53868;BME280;41577;47.470;19.080;2023-06-14T00:02:18;99931.00;;;14.04;100.00
53868;BME280;41577;47.470;19.080;2023-06-14T00:02:30;99928.53;;;14.02;100.00
53868;BME280;41577;47.470;19.080;2023-06-14T00:02:42;99927.72;;;14.01;100.00
53868;BME280;41577;47.470;19.080;2023-06-14T00:02:54;99929.34;;;14.02;100.00
53868;BME280;41577;47.470;19.080;2023-06-14T00:03:06;99926.91;;;14.01;100.00
53868;BME280;41577;47.470;19.080;2023-06-14T00:03:18;99936.59;;;14.02;100.00
53868;BME280;41577;47.470;19.080;2023-06-14T00:03:30;99927.72;;;14.01;100.00
53868;BME280;41577;47.470;19.080;2023-06-14T00:03:42;99919.66;;;14.01;100.00
53868;BME280;41577;47.470;19.080;2023-06-14T00:03:54;99931.22;;;14.02;100.00
53868;BME280;41577;47.470;19.080;2023-06-14T00:04:06;99929.59;;;14.01;100.00
53868;BME280;41577;47.470;19.080;2023-06-14T00:04:18;99929.59;;;14.01;100.00
53868;BME280;41577;47.470;19.080;2023-06-14T00:04:30;99934.16;;;14.00;100.00
53868;BME280;41577;47.470;19.080;2023-06-14T00:04:41;99929.81;;;13.99;100.00
53868;BME280;41577;47.470;19.080;2023-06-14T00:04:53;99927.13;;;13.99;100.00
53868;BME280;41577;47.470;19.080;2023-06-14T00:05:06;99935.16;;;13.99;100.00
53868;BME280;41577;47.470;19.080;2023-06-14T00:05:18;99930.84;;;13.98;100.00
53868;BME280;41577;47.470;19.080;2023-06-14T00:05:29;99932.69;;;13.98;100.00
53868;BME280;41577;47.470;19.080;2023-06-14T00:05:41;99930.00;;;13.98;100.00
53868;BME280;41577;47.470;19.080;2023-06-14T00:05:53;99925.50;;;13.98;100.00
53868;BME280;41577;47.470;19.080;2023-06-14T00:06:04;99928.38;;;13.97;100.00
53868;BME280;41577;47.470;19.080;2023-06-14T00:06:16;99929.44;;;13.96;100.00
53868;BME280;41577;47.470;19.080;2023-06-14T00:06:28;99935.63;;;13.96;100.00
53868;BME280;41577;47.470;19.080;2023-06-14T00:06:40;99935.63;;;13.96;100.00
53868;BME280;41577;47.470;19.080;2023-06-14T00:06:52;99931.28;;;13.95;100.00
53868;BME280;41577;47.470;19.080;2023-06-14T00:07:04;99929.66;;;13.94;100.00
53868;BME280;41577;47.470;19.080;2023-06-14T00:07:16;99933.16;;;13.95;100.00
53868;BME280;41577;47.470;19.080;2023-06-14T00:07:34;99938.53;;;13.95;100.00
53868;BME280;41577;47.470;19.080;2023-06-14T00:07:46;99929.66;;;13.94;100.00
53868;BME280;41577;47.470;19.080;2023-06-14T00:07:57;99935.03;;;13.94;100.00
53868;BME280;41577;47.470;19.080;2023-06-14T00:08:09;99934.19;;;13.94;100.00
53868;BME280;41577;47.470;19.080;2023-06-14T00:08:21;99933.34;;;13.93;100.00
53868;BME280;41577;47.470;19.080;2023-06-14T00:08:33;99931.72;;;13.92;100.00
53868;BME280;41577;47.470;19.080;2023-06-14T00:08:45;99929.84;;;13.93;100.00
53868;BME280;41577;47.470;19.080;2023-06-14T00:08:56;99930.09;;;13.91;100.00
53868;BME280;41577;47.470;19.080;2023-06-14T00:09:08;99932.78;;;13.91;100.00
53868;BME280;41577;47.470;19.080;2023-06-14T00:09:20;99935.47;;;13.91;100.00
53868;BME280;41577;47.470;19.080;2023-06-14T00:09:32;99931.94;;;13.91;100.00
53868;BME280;41577;47.470;19.080;2023-06-14T00:09:43;99938.16;;;13.91;100.00
53868;BME280;41577;47.470;19.080;2023-06-14T00:09:55;99934.63;;;13.91;100.00
53868;BME280;41577;47.470;19.080;2023-06-14T00:10:07;99940.84;;;13.91;100.00
53868;BME280;41577;47.470;19.080;2023-06-14T00:10:19;99934.63;;;13.91;100.00
53868;BME280;41577;47.470;19.080;2023-06-14T00:10:31;99928.44;;;13.90;100.00
53868;BME280;41577;47.470;19.080;2023-06-14T00:10:43;99933.81;;;13.90;100.00
53868;BME280;41577;47.470;19.080;2023-06-14T00:10:55;99931.13;;;13.90;100.00
53868;BME280;41577;47.470;19.080;2023-06-14T00:11:07;99933.81;;;13.90;100.00
53868;BME280;41577;47.470;19.080;2023-06-14T00:11:18;99936.50;;;13.90;100.00
53868;BME280;41577;47.470;19.080;2023-06-14T00:11:30;99942.91;;;13.89;100.00
53868;BME280;41577;47.470;19.080;2023-06-14T00:11:42;99940.00;;;13.91;100.00
53868;BME280;41577;47.470;19.080;2023-06-14T00:11:54;99944.53;;;13.90;100.00
53868;BME280;41577;47.470;19.080;2023-06-14T00:12:06;99934.88;;;13.89;100.00
53868;BME280;41577;47.470;19.080;2023-06-14T00:12:18;99937.31;;;13.91;100.00
53868;BME280;41577;47.470;19.080;2023-06-14T00:12:30;99937.53;;;13.89;100.00
53868;BME280;41577;47.470;19.080;2023-06-14T00:12:42;99936.69;;;13.89;100.00
53868;BME280;41577;47.470;19.080;2023-06-14T00:12:54;99936.69;;;13.89;100.00
53868;BME280;41577;47.470;19.080;2023-06-14T00:13:05;99937.31;;;13.91;100.00
53868;BME280;41577;47.470;19.080;2023-06-14T00:13:17;99935.88;;;13.88;100.00
53868;BME280;41577;47.470;19.080;2023-06-14T00:13:29;99935.88;;;13.88;100.00
53868;BME280;41577;47.470;19.080;2023-06-14T00:13:41;99935.88;;;13.88;100.00
53868;BME280;41577;47.470;19.080;2023-06-14T00:13:52;99935.88;;;13.88;100.00
53868;BME280;41577;47.470;19.080;2023-06-14T00:14:04;99929.69;;;13.88;100.00
53868;BME280;41577;47.470;19.080;2023-06-14T00:14:16;99936.94;;;13.87;100.00
53868;BME280;41577;47.470;19.080;2023-06-14T00:14:28;99935.06;;;13.88;100.00
53868;BME280;41577;47.470;19.080;2023-06-14T00:14:40;99939.63;;;13.87;100.00
53868;BME280;41577;47.470;19.080;2023-06-14T00:14:51;99937.75;;;13.88;100.00
53868;BME280;41577;47.470;19.080;2023-06-14T00:15:06;99938.81;;;13.87;100.00
53868;BME280;41577;47.470;19.080;2023-06-14T00:15:18;99937.97;;;13.86;100.00
53868;BME280;41577;47.470;19.080;2023-06-14T00:15:30;99943.34;;;13.86;100.00
53868;BME280;41577;47.470;19.080;2023-06-14T00:15:42;99942.53;;;13.86;100.00
53868;BME280;41577;47.470;19.080;2023-06-14T00:15:54;99937.97;;;13.86;100.00
53868;BME280;41577;47.470;19.080;2023-06-14T00:16:06;99937.16;;;13.86;100.00
53868;BME280;41577;47.470;19.080;2023-06-14T00:16:17;99931.38;;;13.82;100.00
53868;BME280;41577;47.470;19.080;2023-06-14T00:16:29;99940.28;;;13.83;100.00
53868;BME280;41577;47.470;19.080;2023-06-14T00:16:41;99932.22;;;13.83;100.00
53868;BME280;41577;47.470;19.080;2023-06-14T00:16:53;99935.94;;;13.81;100.00
53868;BME280;41577;47.470;19.080;2023-06-14T00:17:04;99933.03;;;13.83;100.00
53868;BME280;41577;47.470;19.080;2023-06-14T00:17:16;99931.63;;;13.80;100.00
53868;BME280;41577;47.470;19.080;2023-06-14T00:17:28;99938.63;;;13.81;100.00
53868;BME280;41577;47.470;19.080;2023-06-14T00:17:40;99932.44;;;13.81;100.00
53868;BME280;41577;47.470;19.080;2023-06-14T00:17:52;99936.75;;;13.82;100.00
53868;BME280;41577;47.470;19.080;2023-06-14T00:18:04;99935.13;;;13.81;100.00
53868;BME280;41577;47.470;19.080;2023-06-14T00:18:16;99931.81;;;13.79;100.00
53868;BME280;41577;47.470;19.080;2023-06-14T00:18:27;99940.50;;;13.81;100.00
53868;BME280;41577;47.470;19.080;2023-06-14T00:18:39;99937.00;;;13.80;100.00
53868;BME280;41577;47.470;19.080;2023-06-14T00:18:51;99938.00;;;13.79;100.00
53868;BME280;41577;47.470;19.080;2023-06-14T00:19:03;99939.88;;;13.79;100.00
53868;BME280;41577;47.470;19.080;2023-06-14T00:19:14;99940.94;;;13.78;100.00
53868;BME280;41577;47.470;19.080;2023-06-14T00:19:26;99931.22;;;13.77;100.00
53868;BME280;41577;47.470;19.080;2023-06-14T00:19:38;99939.06;;;13.78;100.00
53868;BME280;41577;47.470;19.080;2023-06-14T00:19:50;99935.56;;;13.78;100.00
53868;BME280;41577;47.470;19.080;2023-06-14T00:20:03;99936.59;;;13.77;100.00
53868;BME280;41577;47.470;19.080;2023-06-14T00:20:15;99936.81;;;13.75;100.00
53868;BME280;41577;47.470;19.080;2023-06-14T00:20:28;99939.28;;;13.77;100.00
53868;BME280;41577;47.470;19.080;2023-06-14T00:20:40;99935.97;;;13.75;100.00
53868;BME280;41577;47.470;19.080;2023-06-14T00:20:51;99938.66;;;13.75;100.00
53868;BME280;41577;47.470;19.080;2023-06-14T00:21:03;99939.72;;;13.74;100.00
53868;BME280;41577;47.470;19.080;2023-06-14T00:21:15;99934.34;;;13.74;100.00
53868;BME280;41577;47.470;19.080;2023-06-14T00:21:27;99945.09;;;13.74;100.00
53868;BME280;41577;47.470;19.080;2023-06-14T00:21:38;99930.00;;;13.73;100.00
53868;BME280;41577;47.470;19.080;2023-06-14T00:21:50;99941.59;;;13.73;100.00
53868;BME280;41577;47.470;19.080;2023-06-14T00:22:02;99938.06;;;13.73;100.00
53868;BME280;41577;47.470;19.080;2023-06-14T00:22:14;99934.81;;;13.71;100.00
53868;BME280;41577;47.470;19.080;2023-06-14T00:22:26;99940.16;;;13.71;100.00
53868;BME280;41577;47.470;19.080;2023-06-14T00:22:38;99938.50;;;13.70;100.00
53868;BME280;41577;47.470;19.080;2023-06-14T00:22:50;99941.19;;;13.70;100.00
53868;BME280;41577;47.470;19.080;2023-06-14T00:23:01;99940.38;;;13.69;100.00
53868;BME280;41577;47.470;19.080;2023-06-14T00:23:13;99941.41;;;13.68;100.00
53868;BME280;41577;47.470;19.080;2023-06-14T00:23:25;99938.72;;;13.68;100.00
53868;BME280;41577;47.470;19.080;2023-06-14T00:23:37;99943.88;;;13.70;100.00
53868;BME280;41577;47.470;19.080;2023-06-14T00:23:49;99931.72;;;13.67;100.00
53868;BME280;41577;47.470;19.080;2023-06-14T00:24:01;99938.72;;;13.68;100.00
53868;BME280;41577;47.470;19.080;2023-06-14T00:24:12;99948.63;;;13.68;100.00
53868;BME280;41577;47.470;19.080;2023-06-14T00:24:24;99939.78;;;13.67;100.00
53868;BME280;41577;47.470;19.080;2023-06-14T00:24:36;99941.63;;;13.67;100.00
53868;BME280;41577;47.470;19.080;2023-06-14T00:24:48;99937.28;;;13.66;100.00
53868;BME280;41577;47.470;19.080;2023-06-14T00:24:59;99939.97;;;13.66;100.00
53868;BME280;41577;47.470;19.080;2023-06-14T00:25:25;99948.03;;;13.66;100.00
53868;BME280;41577;47.470;19.080;2023-06-14T00:25:40;99946.41;;;13.65;100.00
53868;BME280;41577;47.470;19.080;2023-06-14T00:25:52;99946.41;;;13.65;100.00
53868;BME280;41577;47.470;19.080;2023-06-14T00:26:03;99941.22;;;13.63;100.00
53868;BME280;41577;47.470;19.080;2023-06-14T00:26:15;99946.59;;;13.63;100.00
53868;BME280;41577;47.470;19.080;2023-06-14T00:26:28;99942.06;;;13.64;100.00
53868;BME280;41577;47.470;19.080;2023-06-14T00:26:40;99937.72;;;13.63;100.00
53868;BME280;41577;47.470;19.080;2023-06-14T00:26:52;99941.47;;;13.62;100.00
53868;BME280;41577;47.470;19.080;2023-06-14T00:27:04;99944.16;;;13.62;100.00
53868;BME280;41577;47.470;19.080;2023-06-14T00:27:16;99941.47;;;13.62;100.00
53868;BME280;41577;47.470;19.080;2023-06-14T00:27:28;99951.34;;;13.61;100.00
53868;BME280;41577;47.470;19.080;2023-06-14T00:27:40;99946.00;;;13.61;100.00
53868;BME280;41577;47.470;19.080;2023-06-14T00:27:52;99946.00;;;13.61;100.00
53868;BME280;41577;47.470;19.080;2023-06-14T00:28:04;99949.72;;;13.60;100.00
53868;BME280;41577;47.470;19.080;2023-06-14T00:28:15;99952.41;;;13.60;100.00
53868;BME280;41577;47.470;19.080;2023-06-14T00:28:28;99952.41;;;13.60;100.00
53868;BME280;41577;47.470;19.080;2023-06-14T00:28:39;99948.91;;;13.59;100.00
53868;BME280;41577;47.470;19.080;2023-06-14T00:28:51;99951.34;;;13.61;100.00
53868;BME280;41577;47.470;19.080;2023-06-14T00:29:03;99947.03;;;13.60;100.00
53868;BME280;41577;47.470;19.080;2023-06-14T00:29:15;99944.16;;;13.62;100.00
53868;BME280;41577;47.470;19.080;2023-06-14T00:29:26;99949.72;;;13.60;100.00
53868;BME280;41577;47.470;19.080;2023-06-14T00:29:38;99950.53;;;13.60;100.00
53868;BME280;41577;47.470;19.080;2023-06-14T00:29:50;99948.91;;;13.59;100.00
53868;BME280;41577;47.470;19.080;2023-06-14T00:30:02;99952.63;;;13.58;100.00
53868;BME280;41577;47.470;19.080;2023-06-14T00:30:15;99949.13;;;13.58;100.00
53868;BME280;41577;47.470;19.080;2023-06-14T00:30:27;99948.06;;;13.59;100.00
53868;BME280;41577;47.470;19.080;2023-06-14T00:30:39;99952.63;;;13.58;100.00
53868;BME280;41577;47.470;19.080;2023-06-14T00:30:51;99952.63;;;13.58;100.00
53868;BME280;41577;47.470;19.080;2023-06-14T00:31:03;99944.78;;;13.57;100.00
53868;BME280;41577;47.470;19.080;2023-06-14T00:31:15;99951.00;;;13.57;100.00
53868;BME280;41577;47.470;19.080;2023-06-14T00:31:26;99945.63;;;13.57;100.00
53868;BME280;41577;47.470;19.080;2023-06-14T00:31:38;99950.13;;;13.57;100.00
53868;BME280;41577;47.470;19.080;2023-06-14T00:31:50;99955.50;;;13.57;100.00
53868;BME280;41577;47.470;19.080;2023-06-14T00:32:03;99951.00;;;13.57;100.00
53868;BME280;41577;47.470;19.080;2023-06-14T00:32:15;99956.56;;;13.56;100.00
53868;BME280;41577;47.470;19.080;2023-06-14T00:32:27;99953.06;;;13.55;100.00
53868;BME280;41577;47.470;19.080;2023-06-14T00:32:40;99953.06;;;13.55;100.00
53868;BME280;41577;47.470;19.080;2023-06-14T00:32:52;99947.69;;;13.55;100.00
53868;BME280;41577;47.470;19.080;2023-06-14T00:33:04;99952.25;;;13.55;100.00
53868;BME280;41577;47.470;19.080;2023-06-14T00:33:16;99945.00;;;13.55;100.00
53868;BME280;41577;47.470;19.080;2023-06-14T00:33:28;99952.25;;;13.55;100.00
53868;BME280;41577;47.470;19.080;2023-06-14T00:33:40;99952.25;;;13.55;100.00
53868;BME280;41577;47.470;19.080;2023-06-14T00:33:51;99953.28;;;13.54;100.00
53868;BME280;41577;47.470;19.080;2023-06-14T00:34:03;99958.63;;;13.54;100.00
53868;BME280;41577;47.470;19.080;2023-06-14T00:34:15;99947.91;;;13.54;100.00
53868;BME280;41577;47.470;19.080;2023-06-14T00:34:27;99956.16;;;13.52;100.00
53868;BME280;41577;47.470;19.080;2023-06-14T00:34:38;99950.59;;;13.54;100.00
53868;BME280;41577;47.470;19.080;2023-06-14T00:34:52;99959.44;;;13.54;100.00
53868;BME280;41577;47.470;19.080;2023-06-14T00:35:04;99948.97;;;13.53;100.00
53868;BME280;41577;47.470;19.080;2023-06-14T00:35:16;99959.91;;;13.51;100.00
53868;BME280;41577;47.470;19.080;2023-06-14T00:35:28;99957.00;;;13.53;100.00
53868;BME280;41577;47.470;19.080;2023-06-14T00:35:41;99961.53;;;13.52;100.00
53868;BME280;41577;47.470;19.080;2023-06-14T00:35:53;99956.16;;;13.52;100.00
53868;BME280;41577;47.470;19.080;2023-06-14T00:36:05;99950.78;;;13.52;100.00
53868;BME280;41577;47.470;19.080;2023-06-14T00:36:16;99959.69;;;13.53;100.00
53868;BME280;41577;47.470;19.080;2023-06-14T00:36:28;99952.66;;;13.52;100.00
53868;BME280;41577;47.470;19.080;2023-06-14T00:36:40;99948.09;;;13.52;100.00
53868;BME280;41577;47.470;19.080;2023-06-14T00:36:52;99958.03;;;13.52;100.00
53868;BME280;41577;47.470;19.080;2023-06-14T00:37:04;99958.84;;;13.52;100.00
53868;BME280;41577;47.470;19.080;2023-06-14T00:37:16;99951.63;;;13.53;100.00
53868;BME280;41577;47.470;19.080;2023-06-14T00:37:28;99956.16;;;13.52;100.00
53868;BME280;41577;47.470;19.080;2023-06-14T00:37:40;99963.19;;;13.53;100.00
53868;BME280;41577;47.470;19.080;2023-06-14T00:37:52;99955.13;;;13.53;100.00
53868;BME280;41577;47.470;19.080;2023-06-14T00:38:04;99959.69;;;13.53;100.00
53868;BME280;41577;47.470;19.080;2023-06-14T00:38:17;99952.47;;;13.53;100.00
53868;BME280;41577;47.470;19.080;2023-06-14T00:38:28;99957.81;;;13.53;100.00
53868;BME280;41577;47.470;19.080;2023-06-14T00:38:40;99950.59;;;13.54;100.00
53868;BME280;41577;47.470;19.080;2023-06-14T00:38:53;99949.78;;;13.53;100.00
53868;BME280;41577;47.470;19.080;2023-06-14T00:39:06;99948.97;;;13.53;100.00
53868;BME280;41577;47.470;19.080;2023-06-14T00:39:19;99956.16;;;13.52;100.00
53868;BME280;41577;47.470;19.080;2023-06-14T00:39:31;99945.44;;;13.52;100.00
53868;BME280;41577;47.470;19.080;2023-06-14T00:39:43;99948.97;;;13.53;100.00
53868;BME280;41577;47.470;19.080;2023-06-14T00:39:55;99956.16;;;13.52;100.00
53868;BME280;41577;47.470;19.080;2023-06-14T00:40:07;99951.63;;;13.53;100.00
53868;BME280;41577;47.470;19.080;2023-06-14T00:40:19;99952.66;;;13.52;100.00
53868;BME280;41577;47.470;19.080;2023-06-14T00:40:31;99950.78;;;13.52;100.00
53868;BME280;41577;47.470;19.080;2023-06-14T00:40:42;99948.09;;;13.52;100.00
53868;BME280;41577;47.470;19.080;2023-06-14T00:40:57;99942.16;;;13.50;100.00
53868;BME280;41577;47.470;19.080;2023-06-14T00:41:09;99954.53;;;13.51;100.00
53868;BME280;41577;47.470;19.080;2023-06-14T00:41:20;99955.56;;;13.50;100.00
53868;BME280;41577;47.470;19.080;2023-06-14T00:41:32;99946.47;;;13.51;100.00
53868;BME280;41577;47.470;19.080;2023-06-14T00:41:44;99944.84;;;13.50;100.00
53868;BME280;41577;47.470;19.080;2023-06-14T00:41:56;99944.84;;;13.50;100.00
53868;BME280;41577;47.470;19.080;2023-06-14T00:42:08;99954.72;;;13.50;100.00
53868;BME280;41577;47.470;19.080;2023-06-14T00:42:23;99945.06;;;13.49;100.00
53868;BME280;41577;47.470;19.080;2023-06-14T00:42:35;99948.56;;;13.49;100.00
53868;BME280;41577;47.470;19.080;2023-06-14T00:42:47;99950.63;;;13.47;100.00
53868;BME280;41577;47.470;19.080;2023-06-14T00:43:00;99954.97;;;13.48;100.00
53868;BME280;41577;47.470;19.080;2023-06-14T00:43:12;99948.75;;;13.48;100.00
53868;BME280;41577;47.470;19.080;2023-06-14T00:43:24;99952.69;;;13.45;100.00
53868;BME280;41577;47.470;19.080;2023-06-14T00:43:35;99943.03;;;13.44;100.00
53868;BME280;41577;47.470;19.080;2023-06-14T00:43:47;99951.88;;;13.45;100.00
53868;BME280;41577;47.470;19.080;2023-06-14T00:43:59;99953.53;;;13.46;100.00
53868;BME280;41577;47.470;19.080;2023-06-14T00:44:11;99952.69;;;13.45;100.00
53868;BME280;41577;47.470;19.080;2023-06-14T00:44:25;99952.09;;;13.43;100.00
53868;BME280;41577;47.470;19.080;2023-06-14T00:44:37;99950.00;;;13.45;100.00
53868;BME280;41577;47.470;19.080;2023-06-14T00:44:49;99944.03;;;13.43;100.00
53868;BME280;41577;47.470;19.080;2023-06-14T00:45:02;99951.06;;;13.44;100.00
53868;BME280;41577;47.470;19.080;2023-06-14T00:45:16;99948.38;;;13.44;100.00
53868;BME280;41577;47.470;19.080;2023-06-14T00:45:27;99951.28;;;13.43;100.00
53868;BME280;41577;47.470;19.080;2023-06-14T00:45:39;99951.06;;;13.44;100.00
53868;BME280;41577;47.470;19.080;2023-06-14T00:45:51;99955.63;;;13.44;100.00
53868;BME280;41577;47.470;19.080;2023-06-14T00:46:02;99954.78;;;13.43;100.00
53868;BME280;41577;47.470;19.080;2023-06-14T00:46:14;99954.78;;;13.43;100.00
53868;BME280;41577;47.470;19.080;2023-06-14T00:46:26;99947.78;;;13.42;100.00
53868;BME280;41577;47.470;19.080;2023-06-14T00:46:39;99943.22;;;13.43;100.00
53868;BME280;41577;47.470;19.080;2023-06-14T00:46:50;99951.28;;;13.43;100.00
53868;BME280;41577;47.470;19.080;2023-06-14T00:47:02;99951.28;;;13.43;100.00
53868;BME280;41577;47.470;19.080;2023-06-14T00:47:14;99954.78;;;13.43;100.00
53868;BME280;41577;47.470;19.080;2023-06-14T00:47:26;99947.78;;;13.42;100.00
53868;BME280;41577;47.470;19.080;2023-06-14T00:47:38;99956.63;;;13.43;100.00
53868;BME280;41577;47.470;19.080;2023-06-14T00:47:52;99950.47;;;13.42;100.00
53868;BME280;41577;47.470;19.080;2023-06-14T00:48:05;99953.97;;;13.43;100.00
53868;BME280;41577;47.470;19.080;2023-06-14T00:48:19;99956.63;;;13.43;100.00
53868;BME280;41577;47.470;19.080;2023-06-14T00:48:31;99955.81;;;13.42;100.00
53868;BME280;41577;47.470;19.080;2023-06-14T00:48:44;99947.78;;;13.42;100.00
53868;BME280;41577;47.470;19.080;2023-06-14T00:48:56;99948.81;;;13.41;100.00
53868;BME280;41577;47.470;19.080;2023-06-14T00:49:10;99953.13;;;13.42;100.00
53868;BME280;41577;47.470;19.080;2023-06-14T00:49:24;99955.81;;;13.42;100.00
53868;BME280;41577;47.470;19.080;2023-06-14T00:49:36;99957.69;;;13.42;100.00
53868;BME280;41577;47.470;19.080;2023-06-14T00:49:48;99957.69;;;13.42;100.00
53868;BME280;41577;47.470;19.080;2023-06-14T00:50:01;99952.31;;;13.42;100.00
53868;BME280;41577;47.470;19.080;2023-06-14T00:50:13;99953.34;;;13.41;100.00
53868;BME280;41577;47.470;19.080;2023-06-14T00:50:25;99955.22;;;13.40;100.00
53868;BME280;41577;47.470;19.080;2023-06-14T00:50:37;99950.66;;;13.41;100.00
53868;BME280;41577;47.470;19.080;2023-06-14T00:50:50;99954.41;;;13.39;100.00
53868;BME280;41577;47.470;19.080;2023-06-14T00:51:03;99953.59;;;13.39;100.00
53868;BME280;41577;47.470;19.080;2023-06-14T00:51:16;99949.84;;;13.40;100.00
53868;BME280;41577;47.470;19.080;2023-06-14T00:51:28;99960.56;;;13.40;100.00
53868;BME280;41577;47.470;19.080;2023-06-14T00:51:40;99954.41;;;13.39;100.00
53868;BME280;41577;47.470;19.080;2023-06-14T00:51:52;99951.72;;;13.39;100.00
53868;BME280;41577;47.470;19.080;2023-06-14T00:52:04;99954.41;;;13.39;100.00
53868;BME280;41577;47.470;19.080;2023-06-14T00:52:16;99957.06;;;13.39;100.00
53868;BME280;41577;47.470;19.080;2023-06-14T00:52:28;99956.25;;;13.39;100.00
53868;BME280;41577;47.470;19.080;2023-06-14T00:52:41;99956.25;;;13.39;100.00
53868;BME280;41577;47.470;19.080;2023-06-14T00:52:53;99951.91;;;13.38;100.00
53868;BME280;41577;47.470;19.080;2023-06-14T00:53:05;99952.53;;;13.40;100.00
53868;BME280;41577;47.470;19.080;2023-06-14T00:53:17;99950.91;;;13.39;100.00
53868;BME280;41577;47.470;19.080;2023-06-14T00:53:29;99954.41;;;13.39;100.00
53868;BME280;41577;47.470;19.080;2023-06-14T00:53:41;99954.41;;;13.39;100.00
53868;BME280;41577;47.470;19.080;2023-06-14T00:53:53;99958.09;;;13.38;100.00
53868;BME280;41577;47.470;19.080;2023-06-14T00:54:05;99958.09;;;13.38;100.00
53868;BME280;41577;47.470;19.080;2023-06-14T00:54:17;99953.78;;;13.37;100.00
53868;BME280;41577;47.470;19.080;2023-06-14T00:54:28;99957.28;;;13.38;100.00
53868;BME280;41577;47.470;19.080;2023-06-14T00:54:40;99957.28;;;13.38;100.00
53868;BME280;41577;47.470;19.080;2023-06-14T00:54:52;99957.28;;;13.38;100.00
53868;BME280;41577;47.470;19.080;2023-06-14T00:55:05;99957.28;;;13.38;100.00
53868;BME280;41577;47.470;19.080;2023-06-14T00:55:17;99954.59;;;13.38;100.00
53868;BME280;41577;47.470;19.080;2023-06-14T00:55:29;99954.59;;;13.38;100.00
53868;BME280;41577;47.470;19.080;2023-06-14T00:55:41;99958.34;;;13.37;100.00
53868;BME280;41577;47.470;19.080;2023-06-14T00:55:53;99951.91;;;13.38;100.00
53868;BME280;41577;47.470;19.080;2023-06-14T00:56:05;99957.53;;;13.36;100.00
53868;BME280;41577;47.470;19.080;2023-06-14T00:56:17;99959.16;;;13.37;100.00
53868;BME280;41577;47.470;19.080;2023-06-14T00:56:29;99959.16;;;13.37;100.00
53868;BME280;41577;47.470;19.080;2023-06-14T00:56:43;99954.84;;;13.36;100.00
53868;BME280;41577;47.470;19.080;2023-06-14T00:56:56;99964.53;;;13.37;100.00
53868;BME280;41577;47.470;19.080;2023-06-14T00:57:08;99954.84;;;13.36;100.00
53868;BME280;41577;47.470;19.080;2023-06-14T00:57:20;99955.66;;;13.37;100.00
53868;BME280;41577;47.470;19.080;2023-06-14T00:57:32;99955.66;;;13.37;100.00
53868;BME280;41577;47.470;19.080;2023-06-14T00:57:44;99956.47;;;13.37;100.00
53868;BME280;41577;47.470;19.080;2023-06-14T00:57:57;99955.66;;;13.37;100.00
53868;BME280;41577;47.470;19.080;2023-06-14T00:58:09;99956.47;;;13.37;100.00
53868;BME280;41577;47.470;19.080;2023-06-14T00:58:21;99958.94;;;13.39;100.00
53868;BME280;41577;47.470;19.080;2023-06-14T00:58:34;99962.66;;;13.38;100.00
53868;BME280;41577;47.470;19.080;2023-06-14T00:58:45;99950.50;;;13.35;100.00
53868;BME280;41577;47.470;19.080;2023-06-14T00:58:57;99955.66;;;13.37;100.00
53868;BME280;41577;47.470;19.080;2023-06-14T00:59:09;99956.47;;;13.37;100.00
53868;BME280;41577;47.470;19.080;2023-06-14T00:59:21;99958.34;;;13.37;100.00
53868;BME280;41577;47.470;19.080;2023-06-14T00:59:33;99957.28;;;13.38;100.00
53868;BME280;41577;47.470;19.080;2023-06-14T00:59:46;99956.47;;;13.37;100.00
53868;BME280;41577;47.470;19.080;2023-06-14T00:59:58;99958.94;;;13.39;100.00
53868;BME280;41577;47.470;19.080;2023-06-14T01:00:11;99957.28;;;13.38;100.00
53868;BME280;41577;47.470;19.080;2023-06-14T01:00:25;99951.09;;;13.37;100.00
53868;BME280;41577;47.470;19.080;2023-06-14T01:00:39;99952.75;;;13.38;100.00
53868;BME280;41577;47.470;19.080;2023-06-14T01:00:51;99955.41;;;13.38;100.00
53868;BME280;41577;47.470;19.080;2023-06-14T01:01:02;99955.66;;;13.37;100.00
53868;BME280;41577;47.470;19.080;2023-06-14T01:01:14;99951.91;;;13.38;100.00
53868;BME280;41577;47.470;19.080;2023-06-14T01:01:26;99951.09;;;13.37;100.00
53868;BME280;41577;47.470;19.080;2023-06-14T01:01:38;99955.66;;;13.37;100.00
53868;BME280;41577;47.470;19.080;2023-06-14T01:01:52;99954.84;;;13.36;100.00
53868;BME280;41577;47.470;19.080;2023-06-14T01:02:05;99948.63;;;13.36;100.00
53868;BME280;41577;47.470;19.080;2023-06-14T01:02:17;99949.47;;;13.36;100.00
53868;BME280;41577;47.470;19.080;2023-06-14T01:02:29;99945.94;;;13.36;100.00
53868;BME280;41577;47.470;19.080;2023-06-14T01:02:40;99954.59;;;13.38;100.00